sensor_id;sensor_type;location;lat;lon;timestamp;pressure;altitude;pressure_sealevel;temperature;humidity
57232;BME280;43488;46.934;8.276;2023-02-28T00:01:25;96697.78;;;-0.18;78.08
57232;BME280;43488;46.934;8.276;2023-02-28T00:03:52;96696.28;;;-0.21;77.99
57232;BME280;43488;46.934;8.276;2023-02-28T00:06:20;96693.41;;;-0.28;78.20
57232;BME280;43488;46.934;8.276;2023-02-28T00:08:48;96700.78;;;-0.23;78.37
57232;BME280;43488;46.934;8.276;2023-02-28T00:11:16;96699.84;;;-0.22;78.57
57232;BME280;43488;46.934;8.276;2023-02-28T00:13:45;96695.75;;;-0.15;78.52
57232;BME280;43488;46.934;8.276;2023-02-28T00:16:21;96689.34;;;-0.20;77.74
57232;BME280;43488;46.934;8.276;2023-02-28T00:18:49;96695.19;;;-0.18;78.21
57232;BME280;43488;46.934;8.276;2023-02-28T00:21:19;96693.44;;;-0.18;78.44
57232;BME280;43488;46.934;8.276;2023-02-28T00:23:46;96692.88;;;-0.12;78.38
57232;BME280;43488;46.934;8.276;2023-02-28T00:26:14;96691.94;;;-0.20;78.28
57232;BME280;43488;46.934;8.276;2023-02-28T00:28:42;96688.38;;;-0.19;78.48
57232;BME280;43488;46.934;8.276;2023-02-28T00:31:09;96698.34;;;-0.15;78.54
57232;BME280;43488;46.934;8.276;2023-02-28T00:33:37;96694.81;;;-0.14;78.15
57232;BME280;43488;46.934;8.276;2023-02-28T00:36:12;96698.88;;;-0.21;78.64
57232;BME280;43488;46.934;8.276;2023-02-28T00:38:40;96708.69;;;-0.15;78.45
57232;BME280;43488;46.934;8.276;2023-02-28T00:41:08;96699.16;;;-0.14;77.93
57232;BME280;43488;46.934;8.276;2023-02-28T00:43:39;96703.91;;;-0.19;78.17
57232;BME280;43488;46.934;8.276;2023-02-28T00:46:08;96698.47;;;-0.26;78.34
57232;BME280;43488;46.934;8.276;2023-02-28T00:48:35;96699.81;;;-0.32;78.40
57232;BME280;43488;46.934;8.276;2023-02-28T00:51:03;96707.19;;;-0.27;78.58
57232;BME280;43488;46.934;8.276;2023-02-28T00:53:31;96704.31;;;-0.34;78.92
57232;BME280;43488;46.934;8.276;2023-02-28T00:56:02;96701.31;;;-0.29;79.25
57232;BME280;43488;46.934;8.276;2023-02-28T00:58:31;96699.44;;;-0.27;78.73
57232;BME280;43488;46.934;8.276;2023-02-28T01:00:58;96703.66;;;-0.16;79.08
57232;BME280;43488;46.934;8.276;2023-02-28T01:03:27;96698.19;;;-0.13;78.48
57232;BME280;43488;46.934;8.276;2023-02-28T01:05:54;96695.47;;;-0.12;78.41
57232;BME280;43488;46.934;8.276;2023-02-28T01:08:21;96691.53;;;-0.16;77.93
57232;BME280;43488;46.934;8.276;2023-02-28T01:10:49;96690.03;;;-0.09;78.08
57232;BME280;43488;46.934;8.276;2023-02-28T01:13:19;96703.66;;;-0.16;78.65
57232;BME280;43488;46.934;8.276;2023-02-28T01:15:52;96697.38;;;-0.14;78.55
57232;BME280;43488;46.934;8.276;2023-02-28T01:18:22;96699.44;;;-0.08;78.19
57232;BME280;43488;46.934;8.276;2023-02-28T01:20:49;96688.53;;;-0.11;78.49
57232;BME280;43488;46.934;8.276;2023-02-28T01:23:23;96697.53;;;-0.06;78.80
57232;BME280;43488;46.934;8.276;2023-02-28T01:25:51;96696.19;;;0.00;79.04
57232;BME280;43488;46.934;8.276;2023-02-28T01:28:19;96697.66;;;0.03;78.95
57232;BME280;43488;46.934;8.276;2023-02-28T01:30:50;96692.63;;;0.01;78.39
57232;BME280;43488;46.934;8.276;2023-02-28T01:33:18;96689.75;;;0.04;78.55
57232;BME280;43488;46.934;8.276;2023-02-28T01:35:45;96692.06;;;0.07;78.10
57232;BME280;43488;46.934;8.276;2023-02-28T01:38:12;96696.84;;;0.02;78.14
57232;BME280;43488;46.934;8.276;2023-02-28T01:40:40;96696.72;;;0.04;78.37
57232;BME280;43488;46.934;8.276;2023-02-28T01:45:53;96698.47;;;0.03;78.37
57232;BME280;43488;46.934;8.276;2023-02-28T01:48:54;96693.44;;;0.02;78.52
57232;BME280;43488;46.934;8.276;2023-02-28T01:54:07;96688.13;;;0.03;78.39
57232;BME280;43488;46.934;8.276;2023-02-28T01:56:52;96689.09;;;0.02;78.57
57232;BME280;43488;46.934;8.276;2023-02-28T01:59:33;96684.72;;;-0.07;78.43
57232;BME280;43488;46.934;8.276;2023-02-28T02:02:02;96682.13;;;0.03;78.64
57232;BME280;43488;46.934;8.276;2023-02-28T02:04:40;96681.72;;;-0.03;78.52
57232;BME280;43488;46.934;8.276;2023-02-28T02:07:09;96678.84;;;-0.09;78.11
57232;BME280;43488;46.934;8.276;2023-02-28T02:09:37;96677.63;;;-0.05;77.83
57232;BME280;43488;46.934;8.276;2023-02-28T02:12:30;96680.63;;;-0.10;77.92
57232;BME280;43488;46.934;8.276;2023-02-28T02:17:56;96671.63;;;0.04;78.03
57232;BME280;43488;46.934;8.276;2023-02-28T02:20:46;96675.72;;;0.07;78.10
57232;BME280;43488;46.934;8.276;2023-02-28T02:24:03;96669.88;;;0.05;78.98
57232;BME280;43488;46.934;8.276;2023-02-28T02:29:52;96662.91;;;0.05;78.16
57232;BME280;43488;46.934;8.276;2023-02-28T02:35:26;96667.28;;;0.05;78.88
57232;BME280;43488;46.934;8.276;2023-02-28T02:38:32;96662.78;;;0.07;78.27
57232;BME280;43488;46.934;8.276;2023-02-28T02:41:37;96662.91;;;0.05;78.46
57232;BME280;43488;46.934;8.276;2023-02-28T02:44:26;96651.47;;;0.08;78.17
57232;BME280;43488;46.934;8.276;2023-02-28T02:47:02;96658.97;;;0.01;77.68
57232;BME280;43488;46.934;8.276;2023-02-28T02:49:33;96664.84;;;-0.07;77.80
57232;BME280;43488;46.934;8.276;2023-02-28T02:52:06;96664.56;;;-0.04;78.42
57232;BME280;43488;46.934;8.276;2023-02-28T02:54:41;96662.25;;;-0.07;78.13
57232;BME280;43488;46.934;8.276;2023-02-28T02:57:15;96664.41;;;-0.02;77.77
57232;BME280;43488;46.934;8.276;2023-02-28T02:59:44;96656.25;;;0.03;78.03
57232;BME280;43488;46.934;8.276;2023-02-28T03:02:14;96659.38;;;-0.04;77.84
57232;BME280;43488;46.934;8.276;2023-02-28T03:05:01;96656.38;;;0.01;77.87
57232;BME280;43488;46.934;8.276;2023-02-28T03:07:29;96653.91;;;-0.01;77.72
57232;BME280;43488;46.934;8.276;2023-02-28T03:09:57;96655.69;;;-0.11;78.16
57232;BME280;43488;46.934;8.276;2023-02-28T03:12:44;96656.94;;;-0.15;78.78
57232;BME280;43488;46.934;8.276;2023-02-28T03:15:27;96654.50;;;-0.07;77.75
57232;BME280;43488;46.934;8.276;2023-02-28T03:21:20;96656.09;;;0.04;77.77
57232;BME280;43488;46.934;8.276;2023-02-28T03:24:07;96664.16;;;0.01;78.67
57232;BME280;43488;46.934;8.276;2023-02-28T03:26:43;96665.22;;;-0.02;78.47
57232;BME280;43488;46.934;8.276;2023-02-28T03:29:16;96661.28;;;-0.06;78.98
57232;BME280;43488;46.934;8.276;2023-02-28T03:32:02;96666.75;;;0.01;79.47
57232;BME280;43488;46.934;8.276;2023-02-28T03:34:36;96662.09;;;0.05;79.16
57232;BME280;43488;46.934;8.276;2023-02-28T03:37:13;96667.94;;;0.07;78.57
57232;BME280;43488;46.934;8.276;2023-02-28T03:40:15;96670.94;;;0.12;78.39
57232;BME280;43488;46.934;8.276;2023-02-28T03:42:48;96668.38;;;0.12;77.90
57232;BME280;43488;46.934;8.276;2023-02-28T03:45:26;96663.44;;;0.09;77.69
57232;BME280;43488;46.934;8.276;2023-02-28T03:48:07;96668.63;;;0.09;78.17
57232;BME280;43488;46.934;8.276;2023-02-28T03:50:41;96668.75;;;0.07;77.77
57232;BME280;43488;46.934;8.276;2023-02-28T03:53:40;96665.13;;;0.00;78.13
57232;BME280;43488;46.934;8.276;2023-02-28T03:56:41;96670.00;;;0.03;78.27
57232;BME280;43488;46.934;8.276;2023-02-28T03:59:34;96663.59;;;-0.03;78.81
57232;BME280;43488;46.934;8.276;2023-02-28T04:02:01;96668.63;;;-0.20;79.29
57232;BME280;43488;46.934;8.276;2023-02-28T04:04:29;96664.97;;;-0.18;79.68
57232;BME280;43488;46.934;8.276;2023-02-28T04:07:08;96670.41;;;-0.21;79.76
57232;BME280;43488;46.934;8.276;2023-02-28T04:09:35;96673.81;;;-0.11;79.84
57232;BME280;43488;46.934;8.276;2023-02-28T04:12:03;96678.31;;;-0.13;80.01
57232;BME280;43488;46.934;8.276;2023-02-28T04:14:30;96673.69;;;-0.19;79.14
57232;BME280;43488;46.934;8.276;2023-02-28T04:16:57;96677.09;;;-0.09;79.17
57232;BME280;43488;46.934;8.276;2023-02-28T04:19:24;96681.03;;;-0.05;79.06
57232;BME280;43488;46.934;8.276;2023-02-28T04:21:53;96674.09;;;-0.04;79.27
57232;BME280;43488;46.934;8.276;2023-02-28T04:24:24;96677.22;;;-0.01;79.46
57232;BME280;43488;46.934;8.276;2023-02-28T04:26:55;96684.31;;;-0.03;79.36
57232;BME280;43488;46.934;8.276;2023-02-28T04:29:30;96677.34;;;-0.02;79.13
57232;BME280;43488;46.934;8.276;2023-02-28T04:32:00;96684.97;;;-0.01;79.36
57232;BME280;43488;46.934;8.276;2023-02-28T04:34:31;96681.47;;;0.01;79.62
57232;BME280;43488;46.934;8.276;2023-02-28T04:36:58;96680.34;;;0.03;79.20
57232;BME280;43488;46.934;8.276;2023-02-28T04:39:27;96682.66;;;0.06;78.35
57232;BME280;43488;46.934;8.276;2023-02-28T04:41:54;96692.88;;;0.08;78.50
57232;BME280;43488;46.934;8.276;2023-02-28T04:44:22;96688.13;;;0.03;78.85
57232;BME280;43488;46.934;8.276;2023-02-28T04:46:50;96694.78;;;0.06;78.67
57232;BME280;43488;46.934;8.276;2023-02-28T04:49:17;96689.09;;;0.02;77.81
57232;BME280;43488;46.934;8.276;2023-02-28T04:51:45;96694.78;;;-0.04;77.42
57232;BME280;43488;46.934;8.276;2023-02-28T04:54:12;96695.22;;;-0.09;79.38
57232;BME280;43488;46.934;8.276;2023-02-28T04:56:40;96696.72;;;0.04;78.62
57232;BME280;43488;46.934;8.276;2023-02-28T04:59:08;96700.38;;;0.01;78.43
57232;BME280;43488;46.934;8.276;2023-02-28T05:01:36;96705.16;;;-0.04;78.61
57232;BME280;43488;46.934;8.276;2023-02-28T05:04:04;96709.66;;;-0.06;78.79
57232;BME280;43488;46.934;8.276;2023-02-28T05:06:33;96709.91;;;-0.09;78.50
57232;BME280;43488;46.934;8.276;2023-02-28T05:09:01;96723.53;;;-0.17;79.21
57232;BME280;43488;46.934;8.276;2023-02-28T05:11:33;96721.78;;;-0.07;78.89
57232;BME280;43488;46.934;8.276;2023-02-28T05:14:11;96723.56;;;-0.07;78.86
57232;BME280;43488;46.934;8.276;2023-02-28T05:16:39;96728.72;;;-0.07;78.44
57232;BME280;43488;46.934;8.276;2023-02-28T05:19:07;96727.19;;;-0.10;78.49
57232;BME280;43488;46.934;8.276;2023-02-28T05:21:55;96736.34;;;-0.15;78.63
57232;BME280;43488;46.934;8.276;2023-02-28T05:24:22;96736.47;;;-0.17;78.50
57232;BME280;43488;46.934;8.276;2023-02-28T05:26:52;96729.78;;;-0.29;79.19
57232;BME280;43488;46.934;8.276;2023-02-28T05:29:21;96727.91;;;-0.27;79.20
57232;BME280;43488;46.934;8.276;2023-02-28T05:31:48;96727.63;;;-0.24;79.37
57232;BME280;43488;46.934;8.276;2023-02-28T05:34:16;96723.25;;;-0.14;79.54
57232;BME280;43488;46.934;8.276;2023-02-28T05:36:43;96733.34;;;-0.11;79.41
57232;BME280;43488;46.934;8.276;2023-02-28T05:39:11;96732.13;;;-0.07;79.41
57232;BME280;43488;46.934;8.276;2023-02-28T05:41:41;96716.31;;;-0.04;79.55
57232;BME280;43488;46.934;8.276;2023-02-28T05:44:09;96729.94;;;-0.02;78.97
57232;BME280;43488;46.934;8.276;2023-02-28T05:46:38;96730.34;;;-0.06;79.89
57232;BME280;43488;46.934;8.276;2023-02-28T05:49:05;96733.91;;;-0.07;79.37
57232;BME280;43488;46.934;8.276;2023-02-28T05:51:32;96722.59;;;-0.06;79.53
57232;BME280;43488;46.934;8.276;2023-02-28T05:54:01;96719.56;;;-0.02;79.84
57232;BME280;43488;46.934;8.276;2023-02-28T05:56:29;96723.94;;;0.08;80.27
57232;BME280;43488;46.934;8.276;2023-02-28T05:58:56;96728.31;;;0.07;79.71
57232;BME280;43488;46.934;8.276;2023-02-28T06:01:37;96726.41;;;0.09;79.58
57232;BME280;43488;46.934;8.276;2023-02-28T06:04:09;96726.41;;;0.09;79.59
57232;BME280;43488;46.934;8.276;2023-02-28T06:06:37;96726.53;;;0.08;79.24
57232;BME280;43488;46.934;8.276;2023-02-28T06:09:05;96726.53;;;0.08;78.95
57232;BME280;43488;46.934;8.276;2023-02-28T06:11:33;96724.91;;;0.07;79.26
57232;BME280;43488;46.934;8.276;2023-02-28T06:14:02;96728.31;;;0.07;79.51
57232;BME280;43488;46.934;8.276;2023-02-28T06:16:33;96730.22;;;0.05;79.36
57232;BME280;43488;46.934;8.276;2023-02-28T06:19:03;96730.06;;;0.07;79.10
57232;BME280;43488;46.934;8.276;2023-02-28T06:21:31;96739.91;;;0.13;79.67
57232;BME280;43488;46.934;8.276;2023-02-28T06:23:59;96739.91;;;0.13;79.37
57232;BME280;43488;46.934;8.276;2023-02-28T06:26:26;96740.03;;;0.11;79.49
57232;BME280;43488;46.934;8.276;2023-02-28T06:28:55;96743.28;;;0.13;79.31
57232;BME280;43488;46.934;8.276;2023-02-28T06:31:23;96749.97;;;0.16;79.80
57232;BME280;43488;46.934;8.276;2023-02-28T06:33:52;96760.06;;;0.09;79.59
57232;BME280;43488;46.934;8.276;2023-02-28T06:36:19;96741.53;;;0.14;79.53
57232;BME280;43488;46.934;8.276;2023-02-28T06:38:46;96747.22;;;0.17;80.11
57232;BME280;43488;46.934;8.276;2023-02-28T06:41:19;96756.38;;;0.21;79.78
57232;BME280;43488;46.934;8.276;2023-02-28T06:43:47;96759.66;;;0.23;79.55
57232;BME280;43488;46.934;8.276;2023-02-28T06:46:14;96753.66;;;0.23;79.70
57232;BME280;43488;46.934;8.276;2023-02-28T06:48:43;96756.66;;;0.28;79.58
57232;BME280;43488;46.934;8.276;2023-02-28T06:51:15;96753.13;;;0.29;79.38
57232;BME280;43488;46.934;8.276;2023-02-28T06:53:43;96770.81;;;0.34;78.86
57232;BME280;43488;46.934;8.276;2023-02-28T06:56:13;96753.25;;;0.27;77.72
57232;BME280;43488;46.934;8.276;2023-02-28T06:58:41;96750.91;;;0.34;77.76
57232;BME280;43488;46.934;8.276;2023-02-28T07:01:09;96761.94;;;0.36;77.56
57232;BME280;43488;46.934;8.276;2023-02-28T07:03:36;96762.66;;;0.38;77.50
57232;BME280;43488;46.934;8.276;2023-02-28T07:06:05;96767.81;;;0.38;77.41
57232;BME280;43488;46.934;8.276;2023-02-28T07:08:34;96772.72;;;0.41;77.76
57232;BME280;43488;46.934;8.276;2023-02-28T07:11:03;96773.25;;;0.45;77.32
57232;BME280;43488;46.934;8.276;2023-02-28T07:13:30;96765.47;;;0.45;77.50
57232;BME280;43488;46.934;8.276;2023-02-28T07:16:04;96764.41;;;0.47;77.87
57232;BME280;43488;46.934;8.276;2023-02-28T07:18:32;96779.94;;;0.47;77.47
57232;BME280;43488;46.934;8.276;2023-02-28T07:21:06;96780.34;;;0.52;77.68
57232;BME280;43488;46.934;8.276;2023-02-28T07:23:35;96785.25;;;0.55;77.54
57232;BME280;43488;46.934;8.276;2023-02-28T07:26:03;96784.31;;;0.47;77.57
57232;BME280;43488;46.934;8.276;2023-02-28T07:28:30;96790.03;;;0.50;78.52
57232;BME280;43488;46.934;8.276;2023-02-28T07:31:06;96787.97;;;0.54;77.79
57232;BME280;43488;46.934;8.276;2023-02-28T07:33:34;96789.88;;;0.52;77.61
57232;BME280;43488;46.934;8.276;2023-02-28T07:36:08;96785.13;;;0.57;77.48
57232;BME280;43488;46.934;8.276;2023-02-28T07:38:37;96788.13;;;0.52;78.58
57232;BME280;43488;46.934;8.276;2023-02-28T07:41:04;96780.22;;;0.44;78.38
57232;BME280;43488;46.934;8.276;2023-02-28T07:43:32;96777.59;;;0.54;77.94
57232;BME280;43488;46.934;8.276;2023-02-28T07:46:12;96776.53;;;0.66;77.58
57232;BME280;43488;46.934;8.276;2023-02-28T07:48:42;96776.75;;;0.73;76.94
57232;BME280;43488;46.934;8.276;2023-02-28T07:51:10;96775.28;;;0.70;77.09
57232;BME280;43488;46.934;8.276;2023-02-28T07:53:37;96771.59;;;0.82;77.01
57232;BME280;43488;46.934;8.276;2023-02-28T07:56:05;96767.31;;;0.91;76.14
57232;BME280;43488;46.934;8.276;2023-02-28T07:58:33;96774.66;;;0.96;75.56
57232;BME280;43488;46.934;8.276;2023-02-28T08:01:09;96778.19;;;1.04;74.71
57232;BME280;43488;46.934;8.276;2023-02-28T08:03:39;96772.69;;;1.17;75.41
57232;BME280;43488;46.934;8.276;2023-02-28T08:06:14;96771.38;;;1.03;75.51
57232;BME280;43488;46.934;8.276;2023-02-28T08:08:42;96780.53;;;0.98;73.73
57232;BME280;43488;46.934;8.276;2023-02-28T08:11:09;96781.16;;;1.09;74.53
57232;BME280;43488;46.934;8.276;2023-02-28T08:13:37;96780.34;;;1.09;74.79
57232;BME280;43488;46.934;8.276;2023-02-28T08:16:05;96786.91;;;1.13;74.46
57232;BME280;43488;46.934;8.276;2023-02-28T08:18:33;96779.09;;;1.23;74.96
57232;BME280;43488;46.934;8.276;2023-02-28T08:21:07;96789.72;;;1.29;71.97
57232;BME280;43488;46.934;8.276;2023-02-28T08:23:35;96794.50;;;1.24;74.59
57232;BME280;43488;46.934;8.276;2023-02-28T08:26:03;96783.69;;;1.38;73.41
57232;BME280;43488;46.934;8.276;2023-02-28T08:28:31;96783.91;;;1.45;73.39
57232;BME280;43488;46.934;8.276;2023-02-28T08:30:59;96786.38;;;1.47;73.29
57232;BME280;43488;46.934;8.276;2023-02-28T08:33:27;96796.59;;;1.48;71.98
57232;BME280;43488;46.934;8.276;2023-02-28T08:35:56;96793.97;;;1.58;72.21
57232;BME280;43488;46.934;8.276;2023-02-28T08:38:24;96798.50;;;1.74;70.40
57232;BME280;43488;46.934;8.276;2023-02-28T08:41:02;96795.94;;;1.91;69.95
57232;BME280;43488;46.934;8.276;2023-02-28T08:43:30;96795.03;;;1.83;70.20
57232;BME280;43488;46.934;8.276;2023-02-28T08:45:57;96792.78;;;1.70;70.72
57232;BME280;43488;46.934;8.276;2023-02-28T08:48:27;96792.50;;;1.73;71.10
57232;BME280;43488;46.934;8.276;2023-02-28T08:51:03;96794.84;;;1.94;69.95
57232;BME280;43488;46.934;8.276;2023-02-28T08:53:31;96793.09;;;2.12;68.93
57232;BME280;43488;46.934;8.276;2023-02-28T08:56:05;96793.44;;;2.17;68.67
57232;BME280;43488;46.934;8.276;2023-02-28T08:58:32;96795.28;;;2.07;70.17
57232;BME280;43488;46.934;8.276;2023-02-28T09:01:09;96797.00;;;2.16;70.24
57232;BME280;43488;46.934;8.276;2023-02-28T09:03:36;96791.66;;;2.18;68.86
57232;BME280;43488;46.934;8.276;2023-02-28T09:06:04;96793.38;;;2.09;67.62
57232;BME280;43488;46.934;8.276;2023-02-28T09:08:31;96798.28;;;2.30;67.16
57232;BME280;43488;46.934;8.276;2023-02-28T09:10:59;96789.81;;;2.28;68.65
57232;BME280;43488;46.934;8.276;2023-02-28T09:13:28;96793.03;;;2.22;68.86
57232;BME280;43488;46.934;8.276;2023-02-28T09:15:59;96786.78;;;2.33;68.61
57232;BME280;43488;46.934;8.276;2023-02-28T09:18:28;96797.09;;;2.42;68.41
57232;BME280;43488;46.934;8.276;2023-02-28T09:20:57;96806.38;;;2.45;67.61
57232;BME280;43488;46.934;8.276;2023-02-28T09:23:25;96800.50;;;2.43;66.58
57232;BME280;43488;46.934;8.276;2023-02-28T09:25:54;96802.13;;;2.26;67.33
57232;BME280;43488;46.934;8.276;2023-02-28T09:28:22;96809.66;;;2.29;67.30
57232;BME280;43488;46.934;8.276;2023-02-28T09:30:53;96808.81;;;2.28;68.18
57232;BME280;43488;46.934;8.276;2023-02-28T09:33:21;96810.47;;;2.30;67.80
57232;BME280;43488;46.934;8.276;2023-02-28T09:35:50;96816.31;;;2.32;66.72
57232;BME280;43488;46.934;8.276;2023-02-28T09:38:19;96804.66;;;2.36;68.14
57232;BME280;43488;46.934;8.276;2023-02-28T09:40:56;96808.47;;;2.41;68.78
57232;BME280;43488;46.934;8.276;2023-02-28T09:43:29;96816.81;;;2.17;68.75
57232;BME280;43488;46.934;8.276;2023-02-28T09:46:05;96813.56;;;2.15;67.83
57232;BME280;43488;46.934;8.276;2023-02-28T09:48:41;96832.19;;;2.11;68.21
57232;BME280;43488;46.934;8.276;2023-02-28T09:54:02;96836.56;;;2.10;67.44
57232;BME280;43488;46.934;8.276;2023-02-28T09:56:41;96839.16;;;2.10;67.76
57232;BME280;43488;46.934;8.276;2023-02-28T10:05:05;96833.47;;;2.24;68.23
57232;BME280;43488;46.934;8.276;2023-02-28T10:08:18;96836.97;;;2.33;69.02
57232;BME280;43488;46.934;8.276;2023-02-28T10:10:54;96838.97;;;2.21;67.24
57232;BME280;43488;46.934;8.276;2023-02-28T10:13:59;96833.97;;;2.28;67.12
57232;BME280;43488;46.934;8.276;2023-02-28T10:16:39;96838.91;;;2.31;67.43
57232;BME280;43488;46.934;8.276;2023-02-28T10:19:55;96831.53;;;2.26;67.60
57232;BME280;43488;46.934;8.276;2023-02-28T10:23:04;96837.34;;;2.20;67.53
57232;BME280;43488;46.934;8.276;2023-02-28T10:25:38;96845.47;;;2.25;67.30
57232;BME280;43488;46.934;8.276;2023-02-28T10:28:13;96846.38;;;2.16;67.43
57232;BME280;43488;46.934;8.276;2023-02-28T10:30:50;96842.44;;;2.12;67.25
57232;BME280;43488;46.934;8.276;2023-02-28T10:35:52;96846.94;;;2.10;68.31
57232;BME280;43488;46.934;8.276;2023-02-28T10:38:28;96845.25;;;2.19;68.14
57232;BME280;43488;46.934;8.276;2023-02-28T10:43:35;96858.69;;;2.14;67.25
57232;BME280;43488;46.934;8.276;2023-02-28T10:48:50;96854.53;;;2.21;66.38
57232;BME280;43488;46.934;8.276;2023-02-28T10:51:24;96854.41;;;2.23;67.75
57232;BME280;43488;46.934;8.276;2023-02-28T10:53:53;96857.50;;;2.26;68.16
57232;BME280;43488;46.934;8.276;2023-02-28T10:56:24;96860.50;;;2.32;68.48
57232;BME280;43488;46.934;8.276;2023-02-28T11:01:45;96868.50;;;2.20;67.58
57232;BME280;43488;46.934;8.276;2023-02-28T11:07:02;96859.38;;;2.34;66.66
57232;BME280;43488;46.934;8.276;2023-02-28T11:09:39;96857.59;;;2.35;66.87
57232;BME280;43488;46.934;8.276;2023-02-28T11:12:29;96865.91;;;2.56;67.77
57232;BME280;43488;46.934;8.276;2023-02-28T11:15:26;96856.47;;;2.55;66.47
57232;BME280;43488;46.934;8.276;2023-02-28T11:18:14;96853.59;;;2.40;67.20
57232;BME280;43488;46.934;8.276;2023-02-28T11:20:53;96858.13;;;2.38;67.34
57232;BME280;43488;46.934;8.276;2023-02-28T11:23:26;96850.84;;;2.42;67.09
57232;BME280;43488;46.934;8.276;2023-02-28T11:26:01;96851.06;;;2.31;66.44
57232;BME280;43488;46.934;8.276;2023-02-28T11:28:36;96862.44;;;2.30;69.49
57232;BME280;43488;46.934;8.276;2023-02-28T11:33:53;96856.78;;;2.52;70.16
57232;BME280;43488;46.934;8.276;2023-02-28T11:36:25;96860.19;;;2.35;68.92
57232;BME280;43488;46.934;8.276;2023-02-28T11:38:56;96852.06;;;2.65;73.12
57232;BME280;43488;46.934;8.276;2023-02-28T11:47:44;96845.59;;;3.13;68.12
57232;BME280;43488;46.934;8.276;2023-02-28T11:50:31;96855.06;;;3.22;68.88
57232;BME280;43488;46.934;8.276;2023-02-28T11:53:21;96852.09;;;3.17;66.59
57232;BME280;43488;46.934;8.276;2023-02-28T11:56:00;96845.88;;;2.84;67.30
57232;BME280;43488;46.934;8.276;2023-02-28T12:01:20;96846.69;;;2.84;67.05
57232;BME280;43488;46.934;8.276;2023-02-28T12:07:14;96848.09;;;2.43;68.97
57232;BME280;43488;46.934;8.276;2023-02-28T12:10:23;96852.78;;;2.40;68.44
57232;BME280;43488;46.934;8.276;2023-02-28T12:13:16;96851.81;;;2.59;68.22
57232;BME280;43488;46.934;8.276;2023-02-28T12:16:40;96852.78;;;2.40;67.93
57232;BME280;43488;46.934;8.276;2023-02-28T12:19:29;96843.28;;;2.66;67.99
57232;BME280;43488;46.934;8.276;2023-02-28T12:22:52;96848.56;;;2.56;67.78
57232;BME280;43488;46.934;8.276;2023-02-28T12:28:38;96845.56;;;2.51;67.83
57232;BME280;43488;46.934;8.276;2023-02-28T12:31:18;96846.16;;;2.63;67.37
57232;BME280;43488;46.934;8.276;2023-02-28T12:33:59;96849.66;;;2.72;67.92
57232;BME280;43488;46.934;8.276;2023-02-28T12:36:28;96844.19;;;2.57;67.43
57232;BME280;43488;46.934;8.276;2023-02-28T12:39:00;96844.75;;;2.51;66.80
57232;BME280;43488;46.934;8.276;2023-02-28T12:44:22;96840.59;;;2.58;65.94
57232;BME280;43488;46.934;8.276;2023-02-28T12:46:53;96839.09;;;2.73;65.89
57232;BME280;43488;46.934;8.276;2023-02-28T12:49:30;96840.97;;;2.63;66.51
57232;BME280;43488;46.934;8.276;2023-02-28T12:52:03;96841.84;;;2.54;66.51
57232;BME280;43488;46.934;8.276;2023-02-28T12:55:03;96838.44;;;2.36;66.21
57232;BME280;43488;46.934;8.276;2023-02-28T13:00:22;96841.19;;;2.52;67.61
57232;BME280;43488;46.934;8.276;2023-02-28T13:09:18;96844.00;;;2.76;66.17
57232;BME280;43488;46.934;8.276;2023-02-28T13:11:48;96838.50;;;2.79;65.35
57232;BME280;43488;46.934;8.276;2023-02-28T13:14:37;96845.50;;;2.79;65.82
57232;BME280;43488;46.934;8.276;2023-02-28T13:19:59;96836.13;;;2.68;64.88
57232;BME280;43488;46.934;8.276;2023-02-28T13:22:44;96847.88;;;2.54;65.76
57232;BME280;43488;46.934;8.276;2023-02-28T13:28:02;96840.22;;;2.71;66.47
57232;BME280;43488;46.934;8.276;2023-02-28T13:34:04;96848.25;;;2.60;64.55
57232;BME280;43488;46.934;8.276;2023-02-28T13:36:30;96857.09;;;2.67;66.23
57232;BME280;43488;46.934;8.276;2023-02-28T13:39:02;96861.56;;;2.56;66.38
57232;BME280;43488;46.934;8.276;2023-02-28T13:41:41;96859.78;;;2.57;66.49
57232;BME280;43488;46.934;8.276;2023-02-28T13:44:23;96861.59;;;2.65;66.38
57232;BME280;43488;46.934;8.276;2023-02-28T13:57:56;96868.88;;;2.61;67.39
57232;BME280;43488;46.934;8.276;2023-02-28T14:01:11;96870.53;;;2.62;67.13
57232;BME280;43488;46.934;8.276;2023-02-28T14:06:33;96867.09;;;2.62;67.14
57232;BME280;43488;46.934;8.276;2023-02-28T14:09:40;96867.25;;;2.42;67.01
57232;BME280;43488;46.934;8.276;2023-02-28T14:15:58;96867.91;;;2.62;67.14
57232;BME280;43488;46.934;8.276;2023-02-28T14:18:37;96867.84;;;2.54;67.11
57232;BME280;43488;46.934;8.276;2023-02-28T14:21:17;96867.19;;;2.52;67.27
57232;BME280;43488;46.934;8.276;2023-02-28T14:27:08;96861.72;;;2.27;68.15
57232;BME280;43488;46.934;8.276;2023-02-28T14:36:35;96876.28;;;2.20;67.66
57232;BME280;43488;46.934;8.276;2023-02-28T14:39:12;96875.69;;;2.26;67.91
57232;BME280;43488;46.934;8.276;2023-02-28T14:41:42;96871.03;;;2.30;67.58
57232;BME280;43488;46.934;8.276;2023-02-28T14:44:25;96874.59;;;2.29;68.30
57232;BME280;43488;46.934;8.276;2023-02-28T14:47:03;96876.09;;;2.32;69.15
57232;BME280;43488;46.934;8.276;2023-02-28T14:49:42;96875.31;;;2.21;70.32
57232;BME280;43488;46.934;8.276;2023-02-28T14:52:29;96878.03;;;2.30;69.02
57232;BME280;43488;46.934;8.276;2023-02-28T14:55:03;96875.13;;;2.33;68.64
57232;BME280;43488;46.934;8.276;2023-02-28T14:57:38;96880.94;;;2.17;69.23
57232;BME280;43488;46.934;8.276;2023-02-28T15:00:27;96875.66;;;2.09;69.30
57232;BME280;43488;46.934;8.276;2023-02-28T15:02:57;96875.38;;;2.12;69.69
57232;BME280;43488;46.934;8.276;2023-02-28T15:05:32;96881.75;;;2.17;69.57
57232;BME280;43488;46.934;8.276;2023-02-28T15:08:16;96885.47;;;2.15;71.95
57232;BME280;43488;46.934;8.276;2023-02-28T15:10:54;96889.91;;;2.05;69.97
57232;BME280;43488;46.934;8.276;2023-02-28T15:13:24;96884.91;;;1.93;70.71
57232;BME280;43488;46.934;8.276;2023-02-28T15:16:07;96887.44;;;1.76;71.04
57232;BME280;43488;46.934;8.276;2023-02-28T15:18:58;96893.06;;;1.71;71.70
57232;BME280;43488;46.934;8.276;2023-02-28T15:21:38;96888.81;;;1.70;70.91
57232;BME280;43488;46.934;8.276;2023-02-28T15:26:58;96887.34;;;1.67;71.67
57232;BME280;43488;46.934;8.276;2023-02-28T15:29:29;96891.72;;;1.67;71.03
57232;BME280;43488;46.934;8.276;2023-02-28T15:32:06;96886.13;;;1.62;71.88
57232;BME280;43488;46.934;8.276;2023-02-28T15:34:43;96889.38;;;1.64;71.46